sensor_id;sensor_type;location;lat;lon;timestamp;pressure;altitude;pressure_sealevel;temperature;humidity
74678;BME280;63207;56.328;43.994;2022-12-18T00:02:16;100736.91;;;21.11;34.82
74678;BME280;63207;56.328;43.994;2022-12-18T00:04:42;100736.91;;;21.11;34.77
74678;BME280;63207;56.328;43.994;2022-12-18T00:07:08;100723.75;;;21.11;34.64
74678;BME280;63207;56.328;43.994;2022-12-18T00:09:34;100716.00;;;21.09;34.75
74678;BME280;63207;56.328;43.994;2022-12-18T00:12:00;100711.72;;;21.08;34.73
74678;BME280;63207;56.328;43.994;2022-12-18T00:14:25;100701.06;;;21.10;34.70
74678;BME280;63207;56.328;43.994;2022-12-18T00:16:51;100685.41;;;21.08;34.82
74678;BME280;63207;56.328;43.994;2022-12-18T00:19:17;100681.97;;;21.07;34.79
74678;BME280;63207;56.328;43.994;2022-12-18T00:21:43;100667.00;;;21.08;34.71
74678;BME280;63207;56.328;43.994;2022-12-18T00:24:10;100667.81;;;21.08;34.61
74678;BME280;63207;56.328;43.994;2022-12-18T00:26:38;100655.66;;;21.07;34.82
74678;BME280;63207;56.328;43.994;2022-12-18T00:29:11;100650.41;;;21.07;34.71
74678;BME280;63207;56.328;43.994;2022-12-18T00:31:40;100646.94;;;21.07;34.81
74678;BME280;63207;56.328;43.994;2022-12-18T00:34:24;100631.16;;;21.07;34.76
74678;BME280;63207;56.328;43.994;2022-12-18T00:36:51;100622.44;;;21.06;34.75
74678;BME280;63207;56.328;43.994;2022-12-18T00:39:17;100597.13;;;21.05;34.72
74678;BME280;63207;56.328;43.994;2022-12-18T00:41:44;100590.03;;;21.06;34.75
74678;BME280;63207;56.328;43.994;2022-12-18T00:44:28;100588.09;;;21.08;34.74
74678;BME280;63207;56.328;43.994;2022-12-18T00:46:54;100587.41;;;21.06;34.89
74678;BME280;63207;56.328;43.994;2022-12-18T00:49:20;100577.06;;;21.04;34.82
74678;BME280;63207;56.328;43.994;2022-12-18T00:51:46;100570.00;;;21.05;34.82
74678;BME280;63207;56.328;43.994;2022-12-18T00:54:12;100561.28;;;21.04;34.90
74678;BME280;63207;56.328;43.994;2022-12-18T00:56:39;100539.41;;;21.04;34.72
74678;BME280;63207;56.328;43.994;2022-12-18T00:59:05;100527.09;;;21.04;34.76
74678;BME280;63207;56.328;43.994;2022-12-18T01:01:32;100516.59;;;21.04;34.68
74678;BME280;63207;56.328;43.994;2022-12-18T01:03:59;100506.88;;;21.05;34.88
74678;BME280;63207;56.328;43.994;2022-12-18T01:06:25;100513.09;;;21.04;34.79
74678;BME280;63207;56.328;43.994;2022-12-18T01:08:51;100494.69;;;21.04;34.69
74678;BME280;63207;56.328;43.994;2022-12-18T01:11:19;100489.44;;;21.04;34.73
74678;BME280;63207;56.328;43.994;2022-12-18T01:13:45;100475.63;;;21.02;34.81
74678;BME280;63207;56.328;43.994;2022-12-18T01:16:12;100478.09;;;21.03;34.76
74678;BME280;63207;56.328;43.994;2022-12-18T01:18:38;100467.56;;;21.03;34.82
74678;BME280;63207;56.328;43.994;2022-12-18T01:21:09;100463.31;;;21.02;34.68
74678;BME280;63207;56.328;43.994;2022-12-18T01:23:36;100456.38;;;21.01;34.83
74678;BME280;63207;56.328;43.994;2022-12-18T01:26:10;100451.97;;;21.02;34.78
74678;BME280;63207;56.328;43.994;2022-12-18T01:28:37;100450.16;;;21.02;34.77
74678;BME280;63207;56.328;43.994;2022-12-18T01:31:31;100445.84;;;21.01;34.90
74678;BME280;63207;56.328;43.994;2022-12-18T01:34:00;100438.97;;;21.00;34.83
74678;BME280;63207;56.328;43.994;2022-12-18T01:36:31;100445.84;;;21.01;34.80
74678;BME280;63207;56.328;43.994;2022-12-18T01:39:15;100451.13;;;21.01;34.71
74678;BME280;63207;56.328;43.994;2022-12-18T01:41:41;100455.56;;;21.01;34.71
74678;BME280;63207;56.328;43.994;2022-12-18T01:45:03;100452.09;;;21.00;34.71
74678;BME280;63207;56.328;43.994;2022-12-18T01:47:54;100438.97;;;21.00;34.66
74678;BME280;63207;56.328;43.994;2022-12-18T01:52:55;100410.84;;;21.01;34.73
74678;BME280;63207;56.328;43.994;2022-12-18T01:55:26;100390.81;;;21.00;34.78
74678;BME280;63207;56.328;43.994;2022-12-18T01:57:55;100375.34;;;20.97;34.78
74678;BME280;63207;56.328;43.994;2022-12-18T02:00:23;100367.28;;;20.98;34.85
74678;BME280;63207;56.328;43.994;2022-12-18T02:02:51;100358.44;;;20.99;34.80
74678;BME280;63207;56.328;43.994;2022-12-18T02:20:33;100304.34;;;20.97;34.75
74678;BME280;63207;56.328;43.994;2022-12-18T02:26:07;100301.72;;;20.97;34.77
74678;BME280;63207;56.328;43.994;2022-12-18T02:28:46;100322.75;;;20.97;34.76
74678;BME280;63207;56.328;43.994;2022-12-18T02:31:23;100330.66;;;20.97;34.75
74678;BME280;63207;56.328;43.994;2022-12-18T02:33:53;100332.28;;;20.98;34.59
74678;BME280;63207;56.328;43.994;2022-12-18T02:36:24;100301.72;;;20.97;34.78
74678;BME280;63207;56.328;43.994;2022-12-18T02:38:52;100270.16;;;20.97;34.69
74678;BME280;63207;56.328;43.994;2022-12-18T02:41:23;100249.94;;;20.97;34.73
74678;BME280;63207;56.328;43.994;2022-12-18T02:43:57;100243.88;;;20.97;34.66
74678;BME280;63207;56.328;43.994;2022-12-18T02:46:35;100217.72;;;20.95;34.71
74678;BME280;63207;56.328;43.994;2022-12-18T02:49:31;100196.53;;;20.97;34.58
74678;BME280;63207;56.328;43.994;2022-12-18T02:57:52;100155.59;;;20.94;34.79
74678;BME280;63207;56.328;43.994;2022-12-18T03:03:14;100119.78;;;20.93;34.78
74678;BME280;63207;56.328;43.994;2022-12-18T03:08:40;100083.63;;;20.95;34.77
74678;BME280;63207;56.328;43.994;2022-12-18T03:11:10;100077.69;;;20.93;34.83
74678;BME280;63207;56.328;43.994;2022-12-18T03:13:46;100054.03;;;20.93;34.72
74678;BME280;63207;56.328;43.994;2022-12-18T03:16:18;100034.81;;;20.93;34.67
74678;BME280;63207;56.328;43.994;2022-12-18T03:18:59;100033.00;;;20.93;34.77
74678;BME280;63207;56.328;43.994;2022-12-18T03:21:29;100020.00;;;20.92;34.70
74678;BME280;63207;56.328;43.994;2022-12-18T03:23:58;100029.72;;;20.91;34.78
74678;BME280;63207;56.328;43.994;2022-12-18T03:26:27;100026.13;;;20.92;34.77
74678;BME280;63207;56.328;43.994;2022-12-18T03:29:12;100021.81;;;20.91;34.71
74678;BME280;63207;56.328;43.994;2022-12-18T03:31:47;100034.97;;;20.91;34.76
74678;BME280;63207;56.328;43.994;2022-12-18T03:34:23;100046.97;;;20.94;34.83
74678;BME280;63207;56.328;43.994;2022-12-18T03:36:50;100057.66;;;20.92;34.71
74678;BME280;63207;56.328;43.994;2022-12-18T03:39:17;100056.81;;;20.92;34.77
74678;BME280;63207;56.328;43.994;2022-12-18T03:41:55;100048.78;;;20.93;34.56
74678;BME280;63207;56.328;43.994;2022-12-18T03:45:06;100038.41;;;20.92;34.98
74678;BME280;63207;56.328;43.994;2022-12-18T03:50:23;100033.16;;;20.92;34.72
74678;BME280;63207;56.328;43.994;2022-12-18T03:52:58;100021.81;;;20.91;34.69
74678;BME280;63207;56.328;43.994;2022-12-18T03:55:28;100004.41;;;20.90;35.06
74678;BME280;63207;56.328;43.994;2022-12-18T03:58:01;99998.16;;;20.91;34.83
74678;BME280;63207;56.328;43.994;2022-12-18T04:00:39;99995.72;;;20.90;34.71
74678;BME280;63207;56.328;43.994;2022-12-18T04:03:08;99999.97;;;20.91;34.76
74678;BME280;63207;56.328;43.994;2022-12-18T04:05:44;99984.19;;;20.91;34.79
74678;BME280;63207;56.328;43.994;2022-12-18T04:08:11;99982.38;;;20.91;34.71
74678;BME280;63207;56.328;43.994;2022-12-18T04:10:42;99982.56;;;20.90;34.79
74678;BME280;63207;56.328;43.994;2022-12-18T04:13:11;99986.84;;;20.91;34.85
74678;BME280;63207;56.328;43.994;2022-12-18T04:15:37;99985.03;;;20.91;34.76
74678;BME280;63207;56.328;43.994;2022-12-18T04:18:05;99982.38;;;20.91;34.72
74678;BME280;63207;56.328;43.994;2022-12-18T04:20:38;99969.25;;;20.91;34.85
74678;BME280;63207;56.328;43.994;2022-12-18T04:23:04;99973.84;;;20.89;34.81
74678;BME280;63207;56.328;43.994;2022-12-18T04:25:31;99961.53;;;20.90;34.72
74678;BME280;63207;56.328;43.994;2022-12-18T04:28:05;99953.81;;;20.88;34.83
74678;BME280;63207;56.328;43.994;2022-12-18T04:30:32;99956.28;;;20.90;34.80
74678;BME280;63207;56.328;43.994;2022-12-18T04:32:58;99955.44;;;20.89;34.82
74678;BME280;63207;56.328;43.994;2022-12-18T04:35:24;99951.84;;;20.90;34.70
74678;BME280;63207;56.328;43.994;2022-12-18T04:37:51;99938.84;;;20.89;34.70
74678;BME280;63207;56.328;43.994;2022-12-18T04:40:17;99938.03;;;20.88;34.69
74678;BME280;63207;56.328;43.994;2022-12-18T04:42:45;99927.38;;;20.90;34.76
74678;BME280;63207;56.328;43.994;2022-12-18T04:45:11;99923.88;;;20.89;34.80
74678;BME280;63207;56.328;43.994;2022-12-18T04:47:37;99928.19;;;20.90;34.76
74678;BME280;63207;56.328;43.994;2022-12-18T04:50:03;99917.00;;;20.88;34.78
74678;BME280;63207;56.328;43.994;2022-12-18T04:52:32;99917.81;;;20.89;34.75
74678;BME280;63207;56.328;43.994;2022-12-18T04:54:58;99926.53;;;20.89;34.73
74678;BME280;63207;56.328;43.994;2022-12-18T04:57:24;99917.81;;;20.89;34.81
74678;BME280;63207;56.328;43.994;2022-12-18T04:59:50;99913.56;;;20.88;34.72
74678;BME280;63207;56.328;43.994;2022-12-18T05:02:16;99912.56;;;20.89;34.80
74678;BME280;63207;56.328;43.994;2022-12-18T05:04:42;99909.94;;;20.89;34.71
74678;BME280;63207;56.328;43.994;2022-12-18T05:07:07;99903.84;;;20.88;34.65
74678;BME280;63207;56.328;43.994;2022-12-18T05:09:33;99899.41;;;20.89;34.63
74678;BME280;63207;56.328;43.994;2022-12-18T05:11:59;99897.78;;;20.88;34.80
74678;BME280;63207;56.328;43.994;2022-12-18T05:14:25;99887.28;;;20.88;34.71
74678;BME280;63207;56.328;43.994;2022-12-18T05:17:11;99883.63;;;20.89;34.65
74678;BME280;63207;56.328;43.994;2022-12-18T05:19:37;99887.28;;;20.88;34.66
74678;BME280;63207;56.328;43.994;2022-12-18T05:22:21;99877.56;;;20.88;34.72
74678;BME280;63207;56.328;43.994;2022-12-18T05:24:47;99877.72;;;20.86;34.70
74678;BME280;63207;56.328;43.994;2022-12-18T05:27:13;99882.00;;;20.88;34.65
74678;BME280;63207;56.328;43.994;2022-12-18T05:29:39;99884.63;;;20.88;34.62
74678;BME280;63207;56.328;43.994;2022-12-18T05:32:05;99875.94;;;20.87;34.79
74678;BME280;63207;56.328;43.994;2022-12-18T05:34:30;99861.13;;;20.86;34.70
74678;BME280;63207;56.328;43.994;2022-12-18T05:36:56;99861.94;;;20.86;34.90
74678;BME280;63207;56.328;43.994;2022-12-18T05:39:22;99859.16;;;20.88;34.69
74678;BME280;63207;56.328;43.994;2022-12-18T05:41:48;99845.38;;;20.86;34.73
74678;BME280;63207;56.328;43.994;2022-12-18T05:44:14;99841.56;;;20.89;34.80
74678;BME280;63207;56.328;43.994;2022-12-18T05:46:40;99839.94;;;20.88;34.68
74678;BME280;63207;56.328;43.994;2022-12-18T05:49:06;99843.41;;;20.88;34.75
74678;BME280;63207;56.328;43.994;2022-12-18T05:51:50;99846.19;;;20.86;34.72
74678;BME280;63207;56.328;43.994;2022-12-18T05:54:16;99844.41;;;20.87;34.70
74678;BME280;63207;56.328;43.994;2022-12-18T05:56:41;99842.75;;;20.86;34.97
74678;BME280;63207;56.328;43.994;2022-12-18T05:59:07;99841.91;;;20.85;34.75
74678;BME280;63207;56.328;43.994;2022-12-18T06:01:33;99840.75;;;20.88;34.78
74678;BME280;63207;56.328;43.994;2022-12-18T06:03:59;99839.28;;;20.85;34.76
74678;BME280;63207;56.328;43.994;2022-12-18T06:06:26;99845.22;;;20.88;34.63
74678;BME280;63207;56.328;43.994;2022-12-18T06:08:53;99836.66;;;20.85;34.72
74678;BME280;63207;56.328;43.994;2022-12-18T06:11:21;99830.41;;;20.86;34.55
74678;BME280;63207;56.328;43.994;2022-12-18T06:13:52;99824.34;;;20.86;34.63
74678;BME280;63207;56.328;43.994;2022-12-18T06:16:21;99825.16;;;20.86;34.61
74678;BME280;63207;56.328;43.994;2022-12-18T06:18:47;99822.38;;;20.88;34.71
74678;BME280;63207;56.328;43.994;2022-12-18T06:21:13;99822.53;;;20.86;34.69
74678;BME280;63207;56.328;43.994;2022-12-18T06:23:39;99827.78;;;20.86;34.74
74678;BME280;63207;56.328;43.994;2022-12-18T06:26:06;99820.06;;;20.85;34.71
74678;BME280;63207;56.328;43.994;2022-12-18T06:28:32;99821.72;;;20.86;34.65
74678;BME280;63207;56.328;43.994;2022-12-18T06:30:57;99821.72;;;20.86;34.57
74678;BME280;63207;56.328;43.994;2022-12-18T06:33:42;99815.47;;;20.87;34.89
74678;BME280;63207;56.328;43.994;2022-12-18T06:36:10;99812.00;;;20.86;34.74
74678;BME280;63207;56.328;43.994;2022-12-18T06:38:39;99803.31;;;20.86;34.66
74678;BME280;63207;56.328;43.994;2022-12-18T06:41:10;99797.06;;;20.87;34.91
74678;BME280;63207;56.328;43.994;2022-12-18T06:43:37;99793.78;;;20.85;34.72
74678;BME280;63207;56.328;43.994;2022-12-18T06:46:04;99792.78;;;20.86;34.73
74678;BME280;63207;56.328;43.994;2022-12-18T06:48:30;99790.16;;;20.86;34.63
74678;BME280;63207;56.328;43.994;2022-12-18T06:50:56;99792.78;;;20.86;34.71
74678;BME280;63207;56.328;43.994;2022-12-18T06:53:22;99781.31;;;20.87;34.69
74678;BME280;63207;56.328;43.994;2022-12-18T06:55:48;99782.28;;;20.86;34.65
74678;BME280;63207;56.328;43.994;2022-12-18T06:58:15;99769.94;;;20.86;34.69
74678;BME280;63207;56.328;43.994;2022-12-18T07:00:41;99767.31;;;20.86;34.61
74678;BME280;63207;56.328;43.994;2022-12-18T07:03:07;99761.25;;;20.86;34.76
74678;BME280;63207;56.328;43.994;2022-12-18T07:05:39;99758.63;;;20.86;34.78
74678;BME280;63207;56.328;43.994;2022-12-18T07:08:06;99755.19;;;20.85;34.76
74678;BME280;63207;56.328;43.994;2022-12-18T07:10:32;99748.28;;;20.84;34.66
74678;BME280;63207;56.328;43.994;2022-12-18T07:12:57;99750.72;;;20.86;34.67
74678;BME280;63207;56.328;43.994;2022-12-18T07:15:25;99753.34;;;20.86;34.70
74678;BME280;63207;56.328;43.994;2022-12-18T07:17:51;99746.28;;;20.86;34.74
74678;BME280;63207;56.328;43.994;2022-12-18T07:20:17;99736.78;;;20.85;34.71
74678;BME280;63207;56.328;43.994;2022-12-18T07:22:43;99744.81;;;20.84;34.77
74678;BME280;63207;56.328;43.994;2022-12-18T07:25:09;99748.91;;;20.86;34.70
74678;BME280;63207;56.328;43.994;2022-12-18T07:27:34;99746.47;;;20.85;34.67
74678;BME280;63207;56.328;43.994;2022-12-18T07:30:19;99736.78;;;20.85;34.64
74678;BME280;63207;56.328;43.994;2022-12-18T07:32:44;99716.75;;;20.84;34.67
74678;BME280;63207;56.328;43.994;2022-12-18T07:35:10;99720.19;;;20.85;34.83
74678;BME280;63207;56.328;43.994;2022-12-18T07:37:36;99716.75;;;20.84;34.65
74678;BME280;63207;56.328;43.994;2022-12-18T07:40:02;99729.69;;;20.86;34.64
74678;BME280;63207;56.328;43.994;2022-12-18T07:42:28;99734.16;;;20.85;34.67
74678;BME280;63207;56.328;43.994;2022-12-18T07:44:58;99725.44;;;20.85;34.71
74678;BME280;63207;56.328;43.994;2022-12-18T07:47:24;99718.53;;;20.84;34.73
74678;BME280;63207;56.328;43.994;2022-12-18T07:49:50;99712.47;;;20.83;34.62
74678;BME280;63207;56.328;43.994;2022-12-18T07:52:16;99710.50;;;20.85;34.63
74678;BME280;63207;56.328;43.994;2022-12-18T07:54:42;99700.97;;;20.84;34.58
74678;BME280;63207;56.328;43.994;2022-12-18T07:57:08;99701.78;;;20.85;34.65
74678;BME280;63207;56.328;43.994;2022-12-18T07:59:34;99699.97;;;20.85;34.65
74678;BME280;63207;56.328;43.994;2022-12-18T08:02:19;99691.44;;;20.83;34.61
74678;BME280;63207;56.328;43.994;2022-12-18T08:04:44;99680.91;;;20.83;34.70
74678;BME280;63207;56.328;43.994;2022-12-18T08:07:10;99686.19;;;20.83;34.67
74678;BME280;63207;56.328;43.994;2022-12-18T08:09:36;99686.03;;;20.85;34.61
74678;BME280;63207;56.328;43.994;2022-12-18T08:12:02;99685.38;;;20.83;34.65
74678;BME280;63207;56.328;43.994;2022-12-18T08:14:28;99679.94;;;20.84;34.68
74678;BME280;63207;56.328;43.994;2022-12-18T08:16:54;99682.72;;;20.83;34.65
74678;BME280;63207;56.328;43.994;2022-12-18T08:19:20;99688.66;;;20.85;34.54
74678;BME280;63207;56.328;43.994;2022-12-18T08:21:46;99685.38;;;20.83;34.71
74678;BME280;63207;56.328;43.994;2022-12-18T08:24:11;99692.25;;;20.84;34.57
74678;BME280;63207;56.328;43.994;2022-12-18T08:26:37;99691.28;;;20.85;34.70
74678;BME280;63207;56.328;43.994;2022-12-18T08:29:03;99696.53;;;20.85;34.72
74678;BME280;63207;56.328;43.994;2022-12-18T08:31:30;99691.44;;;20.83;34.63
74678;BME280;63207;56.328;43.994;2022-12-18T08:33:56;99699.16;;;20.85;34.72
74678;BME280;63207;56.328;43.994;2022-12-18T08:36:23;99693.91;;;20.85;34.76
74678;BME280;63207;56.328;43.994;2022-12-18T08:38:49;99699.16;;;20.85;34.70
74678;BME280;63207;56.328;43.994;2022-12-18T08:41:16;99706.03;;;20.86;34.55
74678;BME280;63207;56.328;43.994;2022-12-18T08:43:42;99713.13;;;20.85;34.56
74678;BME280;63207;56.328;43.994;2022-12-18T08:46:34;99708.84;;;20.84;34.58
74678;BME280;63207;56.328;43.994;2022-12-18T08:49:01;99708.03;;;20.84;34.72
74678;BME280;63207;56.328;43.994;2022-12-18T08:51:27;99716.75;;;20.84;34.72
74678;BME280;63207;56.328;43.994;2022-12-18T08:53:53;99717.56;;;20.85;34.65
74678;BME280;63207;56.328;43.994;2022-12-18T08:56:19;99717.56;;;20.85;34.55
74678;BME280;63207;56.328;43.994;2022-12-18T08:58:45;99713.28;;;20.84;34.59
74678;BME280;63207;56.328;43.994;2022-12-18T09:01:11;99707.03;;;20.85;34.77
74678;BME280;63207;56.328;43.994;2022-12-18T09:03:38;99709.69;;;20.85;34.80
74678;BME280;63207;56.328;43.994;2022-12-18T09:06:04;99704.75;;;20.82;34.58
74678;BME280;63207;56.328;43.994;2022-12-18T09:08:30;99704.41;;;20.85;34.56
74678;BME280;63207;56.328;43.994;2022-12-18T09:10:59;99717.56;;;20.85;34.57
74678;BME280;63207;56.328;43.994;2022-12-18T09:13:25;99711.66;;;20.83;34.59
74678;BME280;63207;56.328;43.994;2022-12-18T09:15:52;99718.38;;;20.85;34.82
74678;BME280;63207;56.328;43.994;2022-12-18T09:18:20;99708.84;;;20.84;34.49
74678;BME280;63207;56.328;43.994;2022-12-18T09:20:46;99708.84;;;20.84;34.67
74678;BME280;63207;56.328;43.994;2022-12-18T09:23:12;99706.22;;;20.84;34.80
74678;BME280;63207;56.328;43.994;2022-12-18T09:25:39;99708.84;;;20.84;34.66
74678;BME280;63207;56.328;43.994;2022-12-18T09:28:16;99713.28;;;20.84;34.59
74678;BME280;63207;56.328;43.994;2022-12-18T09:30:47;99710.66;;;20.84;34.80
74678;BME280;63207;56.328;43.994;2022-12-18T09:33:14;99704.56;;;20.83;34.79
74678;BME280;63207;56.328;43.994;2022-12-18T09:35:41;99714.13;;;20.84;34.77
74678;BME280;63207;56.328;43.994;2022-12-18T09:38:11;99715.91;;;20.84;34.71
74678;BME280;63207;56.328;43.994;2022-12-18T09:40:49;99709.84;;;20.83;34.72
74678;BME280;63207;56.328;43.994;2022-12-18T09:43:42;99715.09;;;20.83;34.79
74678;BME280;63207;56.328;43.994;2022-12-18T09:46:17;99708.03;;;20.84;34.50
74678;BME280;63207;56.328;43.994;2022-12-18T09:48:50;99710.66;;;20.84;34.70
74678;BME280;63207;56.328;43.994;2022-12-18T09:51:23;99705.38;;;20.84;34.73
74678;BME280;63207;56.328;43.994;2022-12-18T09:54:05;99716.09;;;20.82;34.78
74678;BME280;63207;56.328;43.994;2022-12-18T09:56:36;99712.47;;;20.83;34.77
74678;BME280;63207;56.328;43.994;2022-12-18T09:59:05;99705.09;;;20.79;34.76
74678;BME280;63207;56.328;43.994;2022-12-18T10:01:32;99716.91;;;20.83;34.71
74678;BME280;63207;56.328;43.994;2022-12-18T10:03:59;99715.28;;;20.82;34.67
74678;BME280;63207;56.328;43.994;2022-12-18T10:17:08;99714.28;;;20.83;34.73
74678;BME280;63207;56.328;43.994;2022-12-18T10:19:53;99719.53;;;20.83;34.69
74678;BME280;63207;56.328;43.994;2022-12-18T10:25:28;99737.13;;;20.82;34.69
74678;BME280;63207;56.328;43.994;2022-12-18T10:28:07;99745.97;;;20.81;34.74
74678;BME280;63207;56.328;43.994;2022-12-18T10:30:35;99752.06;;;20.82;34.73
74678;BME280;63207;56.328;43.994;2022-12-18T10:33:02;99752.06;;;20.82;34.59
74678;BME280;63207;56.328;43.994;2022-12-18T10:35:28;99752.06;;;20.82;34.62
74678;BME280;63207;56.328;43.994;2022-12-18T10:38:01;99769.47;;;20.83;34.65
74678;BME280;63207;56.328;43.994;2022-12-18T10:40:28;99765.22;;;20.82;34.59
74678;BME280;63207;56.328;43.994;2022-12-18T10:43:14;99767.84;;;20.82;34.57
74678;BME280;63207;56.328;43.994;2022-12-18T10:45:40;99764.38;;;20.81;34.63
74678;BME280;63207;56.328;43.994;2022-12-18T10:48:21;99767.66;;;20.83;34.51
74678;BME280;63207;56.328;43.994;2022-12-18T10:50:49;99776.56;;;20.82;34.69
74678;BME280;63207;56.328;43.994;2022-12-18T10:53:24;99767.66;;;20.83;34.70
74678;BME280;63207;56.328;43.994;2022-12-18T10:55:54;99787.88;;;20.83;34.76
74678;BME280;63207;56.328;43.994;2022-12-18T10:58:36;99793.13;;;20.83;34.57
74678;BME280;63207;56.328;43.994;2022-12-18T11:01:11;99790.50;;;20.83;34.59
74678;BME280;63207;56.328;43.994;2022-12-18T11:06:23;99784.59;;;20.81;34.60
74678;BME280;63207;56.328;43.994;2022-12-18T11:09:19;99781.81;;;20.82;34.49
74678;BME280;63207;56.328;43.994;2022-12-18T11:11:57;99777.53;;;20.81;34.66
74678;BME280;63207;56.328;43.994;2022-12-18T11:16:52;99781.16;;;20.80;34.51
74678;BME280;63207;56.328;43.994;2022-12-18T11:19:37;99788.88;;;20.82;34.42
74678;BME280;63207;56.328;43.994;2022-12-18T11:22:26;99802.19;;;20.80;34.58
74678;BME280;63207;56.328;43.994;2022-12-18T11:27:48;99808.25;;;20.81;34.58
74678;BME280;63207;56.328;43.994;2022-12-18T11:38:31;99832.06;;;20.79;34.47
74678;BME280;63207;56.328;43.994;2022-12-18T11:46:10;99833.72;;;20.80;34.69
74678;BME280;63207;56.328;43.994;2022-12-18T11:49:03;99836.50;;;20.79;34.57
74678;BME280;63207;56.328;43.994;2022-12-18T11:51:41;99847.81;;;20.79;34.57
74678;BME280;63207;56.328;43.994;2022-12-18T11:54:12;99850.47;;;20.79;34.59
74678;BME280;63207;56.328;43.994;2022-12-18T11:56:53;99860.34;;;20.77;34.55
74678;BME280;63207;56.328;43.994;2022-12-18T12:02:24;99868.22;;;20.77;34.50
74678;BME280;63207;56.328;43.994;2022-12-18T12:18:47;99908.63;;;20.76;34.39
74678;BME280;63207;56.328;43.994;2022-12-18T12:21:32;99915.69;;;20.76;34.50
74678;BME280;63207;56.328;43.994;2022-12-18T12:24:39;99909.78;;;20.74;34.47
74678;BME280;63207;56.328;43.994;2022-12-18T12:27:35;99923.72;;;20.74;34.50
74678;BME280;63207;56.328;43.994;2022-12-18T12:38:44;99946.75;;;20.72;34.64
74678;BME280;63207;56.328;43.994;2022-12-18T12:41:04;99956.41;;;20.72;34.51
74678;BME280;63207;56.328;43.994;2022-12-18T12:46:10;99976.63;;;20.71;34.66
74678;BME280;63207;56.328;43.994;2022-12-18T12:48:40;99978.44;;;20.71;34.54
74678;BME280;63207;56.328;43.994;2022-12-18T12:51:22;99991.44;;;20.72;34.52
74678;BME280;63207;56.328;43.994;2022-12-18T12:53:49;100003.91;;;20.70;34.54
74678;BME280;63207;56.328;43.994;2022-12-18T12:56:19;100009.84;;;20.72;34.71
74678;BME280;63207;56.328;43.994;2022-12-18T13:20:49;100053.84;;;20.70;34.45
74678;BME280;63207;56.328;43.994;2022-12-18T13:26:36;100062.69;;;20.69;34.47
74678;BME280;63207;56.328;43.994;2022-12-18T13:36:47;100084.88;;;20.67;34.60
74678;BME280;63207;56.328;43.994;2022-12-18T13:41:53;100084.88;;;20.67;34.59
74678;BME280;63207;56.328;43.994;2022-12-18T13:47:01;100086.53;;;20.68;34.58
74678;BME280;63207;56.328;43.994;2022-12-18T13:49:40;100082.22;;;20.67;34.43
74678;BME280;63207;56.328;43.994;2022-12-18T13:52:18;100097.38;;;20.64;34.39
74678;BME280;63207;56.328;43.994;2022-12-18T13:54:50;100098.00;;;20.67;34.61
74678;BME280;63207;56.328;43.994;2022-12-18T13:57:38;100111.16;;;20.67;34.56
74678;BME280;63207;56.328;43.994;2022-12-18T14:02:49;100112.13;;;20.65;34.72
74678;BME280;63207;56.328;43.994;2022-12-18T14:05:36;100114.75;;;20.65;34.54
74678;BME280;63207;56.328;43.994;2022-12-18T14:08:10;100127.91;;;20.65;34.58
74678;BME280;63207;56.328;43.994;2022-12-18T14:10:43;100125.28;;;20.65;34.56
74678;BME280;63207;56.328;43.994;2022-12-18T14:13:31;100139.56;;;20.63;34.56
74678;BME280;63207;56.328;43.994;2022-12-18T14:16:00;100137.75;;;20.63;34.51
74678;BME280;63207;56.328;43.994;2022-12-18T14:21:28;100153.38;;;20.65;34.55
74678;BME280;63207;56.328;43.994;2022-12-18T14:24:16;100153.38;;;20.65;34.61
74678;BME280;63207;56.328;43.994;2022-12-18T14:26:44;100166.50;;;20.65;34.52
74678;BME280;63207;56.328;43.994;2022-12-18T14:29:30;100163.06;;;20.64;34.36
74678;BME280;63207;56.328;43.994;2022-12-18T14:34:38;100168.47;;;20.63;34.51
74678;BME280;63207;56.328;43.994;2022-12-18T14:37:04;100177.16;;;20.63;34.62
74678;BME280;63207;56.328;43.994;2022-12-18T14:39:30;100178.84;;;20.64;34.57
74678;BME280;63207;56.328;43.994;2022-12-18T14:41:55;100178.00;;;20.64;34.59
74678;BME280;63207;56.328;43.994;2022-12-18T14:44:39;100183.41;;;20.62;34.72
74678;BME280;63207;56.328;43.994;2022-12-18T14:47:14;100182.44;;;20.63;34.67
74678;BME280;63207;56.328;43.994;2022-12-18T14:49:41;100186.72;;;20.64;34.54
74678;BME280;63207;56.328;43.994;2022-12-18T14:52:27;100199.84;;;20.64;34.54
74678;BME280;63207;56.328;43.994;2022-12-18T14:54:53;100201.50;;;20.65;34.60
74678;BME280;63207;56.328;43.994;2022-12-18T14:57:24;100192.78;;;20.65;34.55
74678;BME280;63207;56.328;43.994;2022-12-18T14:59:52;100200.00;;;20.63;34.57
74678;BME280;63207;56.328;43.994;2022-12-18T15:02:28;100200.81;;;20.63;34.59
74678;BME280;63207;56.328;43.994;2022-12-18T15:05:02;100206.75;;;20.65;34.58
74678;BME280;63207;56.328;43.994;2022-12-18T15:07:49;100220.88;;;20.64;34.50
74678;BME280;63207;56.328;43.994;2022-12-18T15:10:20;100217.41;;;20.64;34.54
74678;BME280;63207;56.328;43.994;2022-12-18T15:12:49;100215.63;;;20.64;34.63
74678;BME280;63207;56.328;43.994;2022-12-18T15:18:21;100231.53;;;20.63;34.61
74678;BME280;63207;56.328;43.994;2022-12-18T15:20:53;100235.00;;;20.63;34.63
74678;BME280;63207;56.328;43.994;2022-12-18T15:23:25;100235.00;;;20.63;34.62
74678;BME280;63207;56.328;43.994;2022-12-18T15:26:03;100238.59;;;20.62;34.64
74678;BME280;63207;56.328;43.994;2022-12-18T15:28:35;100247.16;;;20.64;34.83
74678;BME280;63207;56.328;43.994;2022-12-18T15:33:39;100245.50;;;20.63;34.62
74678;BME280;63207;56.328;43.994;2022-12-18T15:36:10;100249.78;;;20.64;34.61